Hunnewell, Missouri
Current Conditions -  °F | °C
As of 11:55 PM on Thursday 27 Nov 2014 (Local Time) from KHAE Reporting Station
Clear Clear  
Wind Chill: -10°   Ceiling: Unl
Heat Index: -5°   Visibility: 10mi
Dew Point: -8°   Wind: 7mph
Humidity: 80%   Direction: 110°ESE
Pressure: 30.34"   Gusts: NA
Location:  39.67°N, 91.86°W
Report Text: KHAE 280555Z AUTO 11006KT 10SM CLR M05/M08 A3034 RMK AO2
Loading
Personal Weather Stations






























Interactive Weather Map New forecast layout! Learn more

10-Day Weather Forecast

Advertisements
Track Severe Weather on mobile